^^

Meteo Aereoporti Centro-Italia

 

 
LIRZ - Perugia S.Egidio (208 m.)
Dati ricevuti: 29/01/2023 16:20
Sereno
Sereno
 Vento da NNE
Vento: NNE 22 km/h
TEMPERATURA: 6°C
Raffreddamento da Vento: 2°C
P.to di Rugiada: 0°C
Umidità: 66%
Pressione: 1021 hPa
Nuvole: Sereno
Visibilità: 10 km
2023/01/29 15:20 LIRZ 291520Z AUTO 02012KT 9999 NCD 06/00 Q1021
 
LIPY - Ancona Falconara (12 m.)
Dati ricevuti: 29/01/2023 16:20
Coperto
Coperto
 Vento da NNW
Vento: NNW 15 km/h
TEMPERATURA: 7°C
Raffreddamento da Vento: 4°C
P.to di Rugiada: 2°C
Umidità: 71%
Pressione: 1023 hPa
Nuvole: Coperto
Visibilità: 10 km
Dettagli Nuvole: Coperto 1006 m
2023/01/29 15:20 LIPY 291520Z AUTO 34008KT 290V010 9999 OVC033/// 07/02 Q1023
 
LIPR - Rimini Miramare (12 m.)
Dati ricevuti: 29/01/2023 16:20
Molto nuvoloso
Molto nuvoloso
 Vento da W
Vento: W 7 km/h
TEMPERATURA: 6°C
Raffreddamento da Vento: 4°C
P.to di Rugiada: 1°C
Umidità: 71%
Pressione: 1024 hPa
Nuvole: Molto nuvoloso
Visibilità: 10 km
Dettagli Nuvole: Qualche nuvola 914 m
Molto nuvoloso 1219 m
2023/01/29 15:20 LIPR 291520Z 28004KT 9999 FEW030 BKN040 06/01 Q1024
 
LIRF - Roma Fiumicino (2 m.)
Dati ricevuti: 29/01/2023 16:20
Sereno
Sereno
 Vento da N
Vento: N 11 km/h
TEMPERATURA: 11°C
P.to di Rugiada: 1°C
Umidità: 50%
Pressione: 1020 hPa
Condizioni generali: Sereno
Visibilità: oltre 10 km
2023/01/29 15:20 LIRF 291520Z 36006KT CAVOK 11/01 Q1020 NOSIG
 
LIRA - Roma Ciampino (129 m.)
Dati ricevuti: 29/01/2023 16:20
Sereno
Sereno
 Vento da N
Vento: N 9 km/h
TEMPERATURA: 11°C
P.to di Rugiada: 1°C
Umidità: 50%
Pressione: 1019 hPa
Condizioni generali: Sereno
Visibilità: oltre 10 km
2023/01/29 15:20 LIRA 291520Z 35005KT 320V040 CAVOK 11/01 Q1019
 
LIRU - Roma Urbe (17 m.)
Dati ricevuti: 29/01/2023 15:50
Sereno
Sereno
 Vento da NNW
Vento: NNW 11 km/h
TEMPERATURA: 12°C
P.to di Rugiada: 2°C
Umidità: 51%
Pressione: 1019 hPa
Condizioni generali: Sereno
Visibilità: oltre 10 km
2023/01/29 14:50 LIRU 291450Z 34006KT 310V020 CAVOK 12/02 Q1019
 
LIVF - Frontone (570 m.)
Dati ricevuti: 29/01/2023 15:55
Molto nuvoloso
Molto nuvoloso
 Vento da N
Vento: N 4 km/h
TEMPERATURA: 2°C
P.to di Rugiada: -3°C
Umidità: 70%
Pressione: 1019 hPa
Nuvole: Molto nuvoloso
Visibilità: 10 km
Dettagli Nuvole: Poco nuvoloso 396 m
Molto nuvoloso 518 m
2023/01/29 14:55 LIVF 291455Z 35002KT 9999 SCT013 BKN017 02/M03 Q1019
 
LIRQ - Firenze Peretola (40 m.)
Dati ricevuti: 29/01/2023 16:20
Sereno
Sereno
 Vento da NE
Vento: NE 19 km/h
TEMPERATURA: 9°C
Raffreddamento da Vento: 6°C
P.to di Rugiada: -3°C
Umidità: 43%
Pressione: 1022 hPa
Condizioni generali: Sereno
Visibilità: oltre 10 km
2023/01/29 15:20 LIRQ 291520Z 04010KT 010V070 CAVOK 09/M03 Q1022
 
LIBP - Pescara (10 m.)
Dati ricevuti: 29/01/2023 16:20
Coperto
Coperto
 Vento da NNW
Vento: NNW 9 km/h
TEMPERATURA: 8°C
Raffreddamento da Vento: 6°C
P.to di Rugiada: 2°C
Umidità: 66%
Pressione: 1023 hPa
Nuvole: Coperto
Visibilità: 10 km
Dettagli Nuvole: Coperto 1646 m
2023/01/29 15:20 LIBP 291520Z AUTO 33005KT 280V020 9999 OVC054/// 08/02 Q1023
 
LIRV - Viterbo (300 m.)
Dati ricevuti: 29/01/2023 15:55
Sereno
Sereno
 Vento da NNE
Vento: NNE 20 km/h
TEMPERATURA: 8°C
Raffreddamento da Vento: 4°C
P.to di Rugiada: -1°C
Umidità: 53%
Pressione: 1020 hPa
Condizioni generali: Sereno
Visibilità: oltre 10 km
2023/01/29 14:55 LIRV 291455Z 03011KT CAVOK 08/M01 Q1020
 
LIQN - Rieti (389 m.)
Dati ricevuti: 29/01/2023 15:50
Sereno
Sereno
 Vento da direzione variabile
Vento: direzione variabile 4 km/h
TEMPERATURA: 10°C
P.to di Rugiada: -3°C
Umidità: 40%
Pressione: 1019 hPa
Condizioni generali: Sereno
Visibilità: oltre 10 km
2023/01/29 14:50 LIQN 291450Z VRB02KT CAVOK 10/M03 Q1019
 
LIRG - Guidonia -RM- (88 m.)
Dati ricevuti: 27/01/2023 18:55
Dati non aggiornati
Poco nuvoloso
Poco nuvoloso
 Vento da SE
Vento: SE 7 km/h
TEMPERATURA: 9°C
Raffreddamento da Vento: 8°C
P.to di Rugiada: 5°C
Umidità: 76%
Pressione: 1008 hPa
Nuvole: Poco nuvoloso
Visibilità: 10 km
Dettagli Nuvole: Poco nuvoloso 914 m
2023/01/27 17:55 LIRG 271755Z 13004KT 9999 SCT030 09/05 Q1008
 
LIRK - Terminillo -RI-(1874 m.)
Dati ricevuti: 29/01/2023 15:55

 Vento da WNW
Vento: WNW 15 km/h
TEMPERATURA: -1°C
Raffreddamento da Vento: -6°C
P.to di Rugiada: -3°C
Umidità: 86%
Pressione: 1006 hPa
2023/01/29 14:55 LIRK 291455Z AUTO 30008KT //// M01/M03 Q1006
 
LIPK - Forlì (27 m.)
Dati ricevuti: 29/01/2023 15:50
Poco nuvoloso
Poco nuvoloso
 Vento da direzione variabile
Vento: direzione variabile 4 km/h
TEMPERATURA: 7°C
P.to di Rugiada: -3°C
Umidità: 49%
Pressione: 1024 hPa
Nuvole: Poco nuvoloso
Visibilità: 10 km
Dettagli Nuvole: Poco nuvoloso 1219 m
2023/01/29 14:50 LIPK 291450Z VRB02KT 9999 SCT040 07/M03 Q1024
 
LIRS - Grosseto (5 m.)
Dati ricevuti: 29/01/2023 15:55
Qualche nuvola
Qualche nuvola
 Vento da NNE
Vento: NNE 19 km/h
TEMPERATURA: 10°C
Raffreddamento da Vento: 7°C
P.to di Rugiada: 1°C
Umidità: 54%
Pressione: 1021 hPa
Nuvole: Qualche nuvola
Visibilità: 10 km
Dettagli Nuvole: Qualche nuvola 914 m
2023/01/29 14:55 LIRS 291455Z 03010KT 9999 FEW030 10/01 Q1021
 
LIRP - Pisa S.Giusto (2 m.)
Dati ricevuti: 29/01/2023 16:15
Sereno
Sereno
 Vento da ESE
Vento: ESE 17 km/h
TEMPERATURA: 10°C
Raffreddamento da Vento: 8°C
P.to di Rugiada: 0°C
Umidità: 50%
Pressione: 1022 hPa
Condizioni generali: Sereno
Visibilità: oltre 10 km
2023/01/29 15:15 LIRP 291515Z 12009KT CAVOK 10/00 Q1022 NOSIG